Teo, Spain
Current Conditions -  °F | °C
As of 7:00 PM on Wednesday 28 Jan 2015 (Local Time) from LEST Reporting Station
Haze Haze  
Wind Chill: 48°   Ceiling: 200
Heat Index: 48°   Visibility: 1.1mi
Dew Point: 48°   Wind: 2mph
Humidity: 100%   Direction: NA
Pressure: 30.3"   Gusts: NA
Location:  42.75°N, 8.5°W
Report Text: LEST 281800Z VRB02KT 1800 BR OVC002 09/09 Q1026 NOSIG
Loading
Personal Weather Stations






























Interactive Weather Map New forecast layout! Learn more

10-Day Weather Forecast

Advertisements
Track Severe Weather on mobile